Time;durP1;ratioP1;P1;durP2;ratioP2;P2;SDS_P1;SDS_P2;PMS_P1;PMS_P2;Temp;Humidity;BMP_temperature;BMP_pressure;BME280_temperature;BME280_humidity;BME280_pressure;Samples;Min_cycle;Max_cycle;Signal;HPM_P1;HPM_P2
2023/04/27 00:00:45;;;;;;;3.40;1.80;;;13.60;70.10;;;;;;2551192;54;21561;-73
2023/04/27 00:03:12;;;;;;;3.30;1.58;;;13.60;70.10;;;;;;2311655;55;20947;-74
2023/04/27 00:05:38;;;;;;;4.10;1.60;;;13.60;70.10;;;;;;2299673;55;20968;-72
2023/04/27 00:08:05;;;;;;;3.40;1.40;;;13.60;70.10;;;;;;2296851;55;21055;-74
2023/04/27 00:10:31;;;;;;;3.80;1.60;;;13.60;70.00;;;;;;2291508;55;20980;-73
2023/04/27 00:12:57;;;;;;;3.17;1.55;;;13.60;70.00;;;;;;2312524;55;20931;-72
2023/04/27 00:15:24;;;;;;;3.78;1.80;;;13.60;70.00;;;;;;2312388;55;20912;-74
2023/04/27 00:17:51;;;;;;;5.07;2.03;;;13.60;70.00;;;;;;2552322;54;21015;-72
2023/04/27 00:20:20;;;;;;;3.50;2.00;;;13.60;70.10;;;;;;2285997;55;20942;-71
2023/04/27 00:22:46;;;;;;;3.33;1.83;;;13.60;70.10;;;;;;2284984;55;21630;-72
2023/04/27 00:25:14;;;;;;;3.90;2.00;;;13.60;70.10;;;;;;2530338;54;20978;-73
2023/04/27 00:27:40;;;;;;;3.12;1.62;;;13.60;70.10;;;;;;2288467;55;21053;-73
2023/04/27 00:30:07;;;;;;;3.33;1.70;;;13.60;70.10;;;;;;2522330;54;21950;-73
2023/04/27 00:32:34;;;;;;;4.20;2.00;;;13.60;70.80;;;;;;2510709;54;21022;-71
2023/04/27 00:35:01;;;;;;;3.67;2.08;;;13.60;70.10;;;;;;2511227;54;20974;-72
2023/04/27 00:37:28;;;;;;;6.18;2.00;;;13.60;70.10;;;;;;2301974;55;20951;-71
2023/04/27 00:39:54;;;;;;;3.12;1.80;;;13.60;70.10;;;;;;2551919;54;21567;-72
2023/04/27 00:42:20;;;;;;;3.65;1.92;;;13.60;70.20;;;;;;2312782;55;21035;-72
2023/04/27 00:44:46;;;;;;;3.60;2.00;;;13.60;70.10;;;;;;2548818;54;20904;-71
2023/04/27 00:47:17;;;;;;;6.50;2.30;;;13.60;70.20;;;;;;2311760;55;21094;-71
2023/04/27 00:49:44;;;;;;;3.22;1.70;;;13.60;70.10;;;;;;2551676;54;20955;-74
2023/04/27 00:52:13;;;;;;;3.20;1.60;;;13.60;70.30;;;;;;2312097;55;21008;-73
2023/04/27 00:54:39;;;;;;;4.30;1.70;;;13.60;70.20;;;;;;2551385;54;21043;-74
2023/04/27 00:57:05;;;;;;;3.75;2.35;;;13.60;70.40;;;;;;2543604;54;20975;-73
2023/04/27 00:59:32;;;;;;;3.42;1.90;;;13.60;70.40;;;;;;2299709;55;20998;-73
2023/04/27 01:01:58;;;;;;;3.33;1.98;;;13.60;70.40;;;;;;2305883;55;20947;-73
2023/04/27 01:04:25;;;;;;;3.10;1.83;;;13.60;70.40;;;;;;2299247;55;20932;-72
2023/04/27 01:06:53;;;;;;;3.62;1.60;;;13.60;70.50;;;;;;2519027;54;20960;-72
2023/04/27 01:09:20;;;;;;;3.12;1.77;;;13.60;70.50;;;;;;2312429;55;21089;-71
2023/04/27 01:11:46;;;;;;;3.20;1.80;;;13.60;70.60;;;;;;2312107;55;20952;-71
2023/04/27 01:14:12;;;;;;;3.55;1.80;;;13.60;70.60;;;;;;2307371;55;21036;-71
2023/04/27 01:16:39;;;;;;;3.50;1.70;;;13.60;70.60;;;;;;2299048;55;20959;-71
2023/04/27 01:19:06;;;;;;;3.47;1.70;;;13.60;70.60;;;;;;2291624;55;21090;-71
2023/04/27 01:21:33;;;;;;;2.95;1.67;;;13.60;70.60;;;;;;2552032;54;21023;-72
2023/04/27 01:24:00;;;;;;;2.85;1.55;;;13.60;70.70;;;;;;2551251;54;21011;-71
2023/04/27 01:26:26;;;;;;;3.28;1.50;;;13.60;70.70;;;;;;2551979;54;21805;-72
2023/04/27 01:28:53;;;;;;;4.68;1.90;;;13.60;70.70;;;;;;2551970;54;20988;-71
2023/04/27 01:31:19;;;;;;;4.40;2.00;;;13.60;70.60;;;;;;2552323;54;20932;-71
2023/04/27 01:33:45;;;;;;;2.87;1.60;;;13.60;70.70;;;;;;2312017;55;20920;-72
2023/04/27 01:36:12;;;;;;;3.67;1.83;;;13.60;70.70;;;;;;2551961;54;21019;-72
2023/04/27 01:38:38;;;;;;;2.92;1.40;;;13.70;70.80;;;;;;2551308;54;21405;-72
2023/04/27 01:41:04;;;;;;;3.25;1.70;;;13.60;70.70;;;;;;2313361;55;21389;-74
2023/04/27 01:43:31;;;;;;;3.00;1.73;;;13.70;70.80;;;;;;2312230;55;20934;-74
2023/04/27 01:46:11;;;;;;;2.80;1.70;;;13.70;70.70;;;;;;2312290;55;21311;-71
2023/04/27 01:48:37;;;;;;;3.37;1.60;;;13.70;70.10;;;;;;2551468;54;21039;-72
2023/04/27 01:51:03;;;;;;;3.30;1.75;;;13.60;70.60;;;;;;2552484;54;20932;-72
2023/04/27 01:53:30;;;;;;;3.60;2.10;;;13.60;70.60;;;;;;2311936;55;20932;-71
2023/04/27 01:55:59;;;;;;;3.00;1.75;;;13.70;70.80;;;;;;2551928;54;21000;-72
2023/04/27 01:58:26;;;;;;;3.03;1.83;;;13.70;70.80;;;;;;2551798;54;20983;-71
2023/04/27 02:00:52;;;;;;;3.37;1.98;;;13.70;70.90;;;;;;2312973;55;21007;-73
2023/04/27 02:03:19;;;;;;;3.00;1.70;;;13.70;70.90;;;;;;2312811;55;21690;-73
2023/04/27 02:05:46;;;;;;;3.45;1.67;;;13.70;70.90;;;;;;2312105;55;20944;-71
2023/04/27 02:08:13;;;;;;;4.05;1.80;;;13.70;70.90;;;;;;2311043;55;21809;-71
2023/04/27 02:10:39;;;;;;;3.00;1.70;;;13.70;70.80;;;;;;2311742;55;20935;-72
2023/04/27 02:13:07;;;;;;;3.42;1.90;;;13.70;70.90;;;;;;2312356;55;21401;-71
2023/04/27 02:15:34;;;;;;;3.17;1.90;;;13.70;70.80;;;;;;2312008;55;20947;-71
2023/04/27 02:18:00;;;;;;;4.03;2.33;;;13.70;70.80;;;;;;2552411;54;20932;-71
2023/04/27 02:20:29;;;;;;;3.62;1.87;;;13.70;70.90;;;;;;2312396;55;20948;-70
2023/04/27 02:22:55;;;;;;;3.22;1.75;;;13.70;70.80;;;;;;2312061;55;20960;-70
2023/04/27 02:25:21;;;;;;;3.55;1.83;;;13.70;70.90;;;;;;2551567;54;21094;-71
2023/04/27 02:27:48;;;;;;;2.83;1.62;;;13.70;70.80;;;;;;2551413;54;21011;-72
2023/04/27 02:30:14;;;;;;;3.62;1.48;;;13.70;70.90;;;;;;2311956;55;20995;-71
2023/04/27 02:32:40;;;;;;;2.87;1.48;;;13.70;70.80;;;;;;2551518;54;20995;-71
2023/04/27 02:35:07;;;;;;;2.62;1.35;;;13.70;70.80;;;;;;2312533;55;21469;-72
2023/04/27 02:37:33;;;;;;;2.42;1.40;;;13.70;70.80;;;;;;2551812;54;21000;-70
2023/04/27 02:40:03;;;;;;;2.75;1.40;;;13.70;70.80;;;;;;2552266;54;21019;-71
2023/04/27 02:42:29;;;;;;;3.00;1.23;;;13.70;71.50;;;;;;2304081;55;21004;-72
2023/04/27 02:44:55;;;;;;;3.42;1.33;;;13.70;70.70;;;;;;2300955;55;21048;-71
2023/04/27 02:47:22;;;;;;;3.05;1.50;;;13.70;70.70;;;;;;2292331;55;20932;-71
2023/04/27 02:49:48;;;;;;;3.00;1.48;;;13.70;70.60;;;;;;2311915;55;21035;-71
2023/04/27 02:52:14;;;;;;;2.80;1.30;;;13.70;70.60;;;;;;2551977;54;21057;-71
2023/04/27 02:54:41;;;;;;;3.45;1.50;;;13.70;70.60;;;;;;2551746;54;21007;-71
2023/04/27 02:57:07;;;;;;;2.85;1.58;;;13.70;70.70;;;;;;2552637;54;21028;-71
2023/04/27 02:59:33;;;;;;;3.30;1.23;;;13.70;70.60;;;;;;2537293;54;21045;-71
2023/04/27 03:02:02;;;;;;;3.08;1.45;;;13.70;70.60;;;;;;2302971;55;21028;-71
2023/04/27 03:04:28;;;;;;;2.78;1.42;;;13.70;70.50;;;;;;2312049;55;21793;-71
2023/04/27 03:06:55;;;;;;;3.12;1.58;;;13.70;70.50;;;;;;2524469;54;20988;-70
2023/04/27 03:09:21;;;;;;;2.72;1.40;;;13.70;70.50;;;;;;2312747;55;20940;-70
2023/04/27 03:11:47;;;;;;;2.97;1.58;;;13.60;70.40;;;;;;2311699;55;20951;-71
2023/04/27 03:14:13;;;;;;;3.40;1.73;;;13.60;70.40;;;;;;2312284;55;20975;-71
2023/04/27 03:16:40;;;;;;;3.10;1.73;;;13.60;70.40;;;;;;2312021;55;21905;-69
2023/04/27 03:19:07;;;;;;;4.80;1.87;;;13.60;70.50;;;;;;2552084;54;20982;-74
2023/04/27 03:21:33;;;;;;;3.70;1.80;;;13.60;70.50;;;;;;2312744;55;21040;-72
2023/04/27 03:23:59;;;;;;;3.47;2.08;;;13.60;70.50;;;;;;2289408;55;21508;-73
2023/04/27 03:26:26;;;;;;;3.25;2.00;;;13.60;70.60;;;;;;2311344;55;21508;-74
2023/04/27 03:28:53;;;;;;;5.03;2.10;;;13.60;70.60;;;;;;2550948;54;21019;-73
2023/04/27 03:31:21;;;;;;;3.25;1.87;;;13.60;70.60;;;;;;2551854;54;21351;-73
2023/04/27 03:33:47;;;;;;;3.33;1.80;;;13.60;70.60;;;;;;2550566;54;21039;-74
2023/04/27 03:36:14;;;;;;;4.00;1.50;;;13.50;70.50;;;;;;2312504;55;20952;-74
2023/04/27 03:38:40;;;;;;;3.00;1.60;;;13.50;70.60;;;;;;2550698;54;21397;-73
2023/04/27 03:41:07;;;;;;;4.22;1.98;;;13.50;70.60;;;;;;2552109;54;21071;-72
2023/04/27 03:43:33;;;;;;;2.90;1.55;;;13.50;70.60;;;;;;2311663;55;20935;-74
2023/04/27 03:46:00;;;;;;;2.70;1.37;;;13.50;70.70;;;;;;2551512;54;20951;-73
2023/04/27 03:48:27;;;;;;;2.55;1.50;;;13.30;70.50;;;;;;2311261;55;20944;-74
2023/04/27 03:50:54;;;;;;;2.90;1.45;;;13.50;70.60;;;;;;2550914;54;20985;-74
2023/04/27 03:53:20;;;;;;;2.90;1.52;;;13.50;70.60;;;;;;2551447;54;20970;-74
2023/04/27 03:55:47;;;;;;;3.65;2.10;;;13.50;70.60;;;;;;2311453;55;21102;-73
2023/04/27 03:58:13;;;;;;;5.03;2.08;;;13.50;70.50;;;;;;2311930;55;21030;-74
2023/04/27 04:00:39;;;;;;;3.72;1.90;;;13.50;70.50;;;;;;2313000;55;20928;-73
2023/04/27 04:03:06;;;;;;;2.92;1.73;;;13.50;70.60;;;;;;2551542;54;20983;-74
2023/04/27 04:05:32;;;;;;;3.83;1.98;;;13.50;70.60;;;;;;2310448;55;21027;-73
2023/04/27 04:07:59;;;;;;;3.53;1.90;;;13.50;70.60;;;;;;2310830;55;22341;-73
2023/04/27 04:10:28;;;;;;;3.33;1.80;;;13.50;70.70;;;;;;2295193;55;20957;-74
2023/04/27 04:12:54;;;;;;;3.60;1.60;;;13.50;70.70;;;;;;2311789;55;21851;-74
2023/04/27 04:15:21;;;;;;;3.62;1.80;;;13.50;70.70;;;;;;2551623;54;20989;-73
2023/04/27 04:17:48;;;;;;;3.40;1.70;;;13.40;70.50;;;;;;2302052;55;21819;-73
2023/04/27 04:20:17;;;;;;;3.55;1.90;;;13.50;70.60;;;;;;2541294;54;21016;-74
2023/04/27 04:22:43;;;;;;;4.68;1.70;;;13.50;70.50;;;;;;2551146;54;21831;-73
2023/04/27 04:25:09;;;;;;;2.72;1.48;;;13.40;70.50;;;;;;2552038;54;20987;-73
2023/04/27 04:27:36;;;;;;;3.58;1.77;;;13.40;70.50;;;;;;2312024;55;21555;-73
2023/04/27 04:30:05;;;;;;;3.62;1.50;;;13.40;70.60;;;;;;2551896;54;20927;-74
2023/04/27 04:32:32;;;;;;;2.83;1.33;;;13.40;70.60;;;;;;2301228;56;21066;-73
2023/04/27 04:35:00;;;;;;;4.25;1.73;;;13.40;70.60;;;;;;2519581;54;21026;-73
2023/04/27 04:37:27;;;;;;;3.78;1.80;;;13.40;70.50;;;;;;2285508;55;21034;-73
2023/04/27 04:39:53;;;;;;;3.78;1.70;;;13.40;70.60;;;;;;2519778;54;20930;-74
2023/04/27 04:42:21;;;;;;;3.58;1.83;;;13.40;70.60;;;;;;2520017;54;20945;-73
2023/04/27 04:44:48;;;;;;;3.85;2.08;;;13.40;70.60;;;;;;2521354;54;21383;-73
2023/04/27 04:47:14;;;;;;;2.87;1.60;;;13.40;70.70;;;;;;2297485;56;21513;-73
2023/04/27 04:49:41;;;;;;;5.07;1.80;;;13.40;70.80;;;;;;2536273;54;20919;-73
2023/04/27 04:52:07;;;;;;;4.72;1.80;;;13.40;70.80;;;;;;2519985;54;21115;-73
2023/04/27 04:54:33;;;;;;;3.72;2.20;;;13.50;71.00;;;;;;2519878;54;20971;-74
2023/04/27 04:57:02;;;;;;;3.12;1.80;;;13.50;71.00;;;;;;2285858;55;20989;-73
2023/04/27 04:59:31;;;;;;;3.47;1.80;;;13.50;71.00;;;;;;2285621;55;20942;-74
2023/04/27 05:01:58;;;;;;;3.85;1.90;;;13.50;71.00;;;;;;2285682;55;21392;-73
2023/04/27 05:04:25;;;;;;;3.45;1.80;;;13.50;71.00;;;;;;2519786;54;20932;-74
2023/04/27 05:06:51;;;;;;;3.87;1.83;;;13.50;71.00;;;;;;2285570;55;20958;-73
2023/04/27 05:09:21;;;;;;;3.97;1.98;;;13.50;71.00;;;;;;2285772;54;21099;-75
2023/04/27 05:11:47;;;;;;;3.30;1.90;;;13.50;71.10;;;;;;2519201;54;21544;-74
2023/04/27 05:14:14;;;;;;;2.80;1.52;;;13.50;71.10;;;;;;2285756;55;21022;-73
2023/04/27 05:16:40;;;;;;;3.42;2.00;;;13.50;71.10;;;;;;2285473;55;20951;-74
2023/04/27 05:19:07;;;;;;;3.05;1.67;;;13.50;71.20;;;;;;2519950;54;21796;-74
2023/04/27 05:21:33;;;;;;;3.53;1.95;;;13.50;71.20;;;;;;2285340;54;20950;-74
2023/04/27 05:24:00;;;;;;;5.95;2.45;;;13.50;71.30;;;;;;2519736;54;20998;-73
2023/04/27 05:26:26;;;;;;;4.18;2.47;;;13.50;71.30;;;;;;2519381;54;21006;-74
2023/04/27 05:28:55;;;;;;;3.67;2.08;;;13.50;71.40;;;;;;2533921;54;20939;-71
2023/04/27 05:31:22;;;;;;;3.45;1.87;;;13.50;71.50;;;;;;2287236;55;21093;-71
2023/04/27 05:33:48;;;;;;;3.35;1.98;;;13.60;71.60;;;;;;2519207;54;21038;-71
2023/04/27 05:36:14;;;;;;;3.90;2.42;;;13.60;71.60;;;;;;2286236;55;20953;-71
2023/04/27 05:38:41;;;;;;;4.20;2.30;;;13.60;71.60;;;;;;2285637;55;20922;-72
2023/04/27 05:41:08;;;;;;;4.00;1.90;;;13.60;71.70;;;;;;2519695;54;20997;-74
2023/04/27 05:43:37;;;;;;;5.97;2.50;;;13.60;71.60;;;;;;2514006;54;20973;-74
2023/04/27 05:46:03;;;;;;;3.95;2.20;;;13.70;71.70;;;;;;2551699;53;20936;-73
2023/04/27 05:48:31;;;;;;;4.18;2.47;;;13.70;71.70;;;;;;2311622;54;20919;-74
2023/04/27 05:51:00;;;;;;;5.22;2.20;;;13.70;71.80;;;;;;2544616;53;21008;-74
2023/04/27 05:53:27;;;;;;;4.10;2.00;;;13.80;71.80;;;;;;2548080;53;20968;-74
2023/04/27 05:55:53;;;;;;;4.20;2.78;;;13.80;72.00;;;;;;2551152;53;20948;-74
2023/04/27 05:58:20;;;;;;;4.78;2.55;;;13.80;72.00;;;;;;2551317;53;20936;-73
2023/04/27 06:00:49;;;;;;;4.87;2.50;;;13.80;72.00;;;;;;2551271;53;21066;-73
2023/04/27 06:03:16;;;;;;;4.47;2.65;;;13.80;71.90;;;;;;2312034;55;20924;-74
2023/04/27 06:05:42;;;;;;;5.57;3.35;;;13.90;71.90;;;;;;2551279;53;20955;-74
2023/04/27 06:08:09;;;;;;;5.72;4.10;;;13.90;71.90;;;;;;2550922;53;20964;-74
2023/04/27 06:10:36;;;;;;;7.97;5.00;;;13.90;71.90;;;;;;2550811;53;21794;-73
2023/04/27 06:13:02;;;;;;;7.37;4.78;;;13.90;71.90;;;;;;2551674;53;21424;-73
2023/04/27 06:15:28;;;;;;;6.72;4.57;;;14.00;72.00;;;;;;2549988;53;20915;-74
2023/04/27 06:17:57;;;;;;;7.82;4.60;;;14.00;72.10;;;;;;2290763;55;20980;-73
2023/04/27 06:20:24;;;;;;;7.72;3.87;;;14.00;72.10;;;;;;2551486;53;20916;-74
2023/04/27 06:22:50;;;;;;;8.02;4.03;;;14.00;72.00;;;;;;2550681;53;20995;-74
2023/04/27 06:25:18;;;;;;;6.43;4.18;;;14.10;71.90;;;;;;2551548;53;21888;-73
2023/04/27 06:27:44;;;;;;;7.50;3.75;;;14.10;71.90;;;;;;2311471;55;20948;-74
2023/04/27 06:30:11;;;;;;;6.70;3.95;;;14.10;71.80;;;;;;2311180;54;20944;-75
2023/04/27 06:32:41;;;;;;;5.87;4.10;;;14.20;72.10;;;;;;2551037;53;20940;-74
2023/04/27 06:35:08;;;;;;;5.87;3.90;;;14.20;72.20;;;;;;2505444;55;20963;-74
2023/04/27 06:37:34;;;;;;;6.55;3.70;;;14.20;72.20;;;;;;2519416;54;20966;-74
2023/04/27 06:40:00;;;;;;;5.68;3.62;;;14.20;72.20;;;;;;2284580;54;21081;-74
2023/04/27 06:42:27;;;;;;;5.62;3.67;;;14.30;72.30;;;;;;2285450;55;21654;-74
2023/04/27 06:44:54;;;;;;;6.03;3.33;;;14.30;72.40;;;;;;2285134;55;20954;-74
2023/04/27 06:47:21;;;;;;;5.80;3.60;;;14.30;72.40;;;;;;2285245;55;20947;-73
2023/04/27 06:49:47;;;;;;;7.40;4.68;;;14.40;73.40;;;;;;2534189;54;21003;-73
2023/04/27 06:52:14;;;;;;;8.32;5.47;;;14.40;72.70;;;;;;2312038;55;21047;-74
2023/04/27 06:54:41;;;;;;;10.02;6.32;;;14.50;72.80;;;;;;2311935;55;20983;-75
2023/04/27 06:57:08;;;;;;;9.93;6.37;;;14.60;72.90;;;;;;2312511;55;21564;-74
2023/04/27 06:59:34;;;;;;;8.52;5.50;;;14.60;73.00;;;;;;2551713;54;20928;-73
2023/04/27 07:02:01;;;;;;;7.25;4.62;;;14.60;73.00;;;;;;2551408;54;20967;-70
2023/04/27 07:04:27;;;;;;;6.55;4.37;;;14.70;73.00;;;;;;2551633;54;21460;-71
2023/04/27 07:06:54;;;;;;;6.82;4.45;;;14.70;73.00;;;;;;2311907;55;21543;-72
2023/04/27 07:09:21;;;;;;;5.87;3.62;;;14.80;73.10;;;;;;2312525;55;21064;-71
2023/04/27 07:11:52;;;;;;;5.30;3.45;;;14.90;73.20;;;;;;2551273;54;20935;-71
2023/04/27 07:14:18;;;;;;;4.50;3.10;;;14.90;73.40;;;;;;2552048;54;20920;-71
2023/04/27 07:16:45;;;;;;;5.80;3.90;;;15.00;73.50;;;;;;2312050;55;21011;-71
2023/04/27 07:19:13;;;;;;;5.25;3.30;;;15.00;73.40;;;;;;2311634;55;21004;-71
2023/04/27 07:21:39;;;;;;;5.43;3.45;;;15.10;73.50;;;;;;2311686;55;20936;-70
2023/04/27 07:24:06;;;;;;;5.07;3.12;;;15.20;73.50;;;;;;2311826;55;21533;-72
2023/04/27 07:26:32;;;;;;;5.50;3.65;;;15.20;73.50;;;;;;2551659;54;20972;-71
2023/04/27 07:29:00;;;;;;;5.32;3.78;;;15.30;73.60;;;;;;2534452;54;20932;-72
2023/04/27 07:31:27;;;;;;;5.07;3.47;;;15.40;73.60;;;;;;2304483;55;20968;-72
2023/04/27 07:33:54;;;;;;;5.37;3.72;;;15.40;73.50;;;;;;2550907;54;20968;-71
2023/04/27 07:36:20;;;;;;;4.90;3.20;;;15.50;73.60;;;;;;2311501;55;20951;-72
2023/04/27 07:38:47;;;;;;;5.47;2.95;;;15.60;73.60;;;;;;2292386;55;21008;-73
2023/04/27 07:41:13;;;;;;;5.55;3.47;;;15.60;73.60;;;;;;2311333;55;21803;-72
2023/04/27 07:43:41;;;;;;;5.40;3.35;;;15.70;73.60;;;;;;2551871;54;20992;-71
2023/04/27 07:46:08;;;;;;;5.72;3.40;;;15.70;73.50;;;;;;2289506;55;20995;-71
2023/04/27 07:48:35;;;;;;;7.15;3.80;;;15.80;73.50;;;;;;2284647;54;20938;-72
2023/04/27 07:51:01;;;;;;;6.50;3.90;;;15.90;73.60;;;;;;2519192;54;20966;-72
2023/04/27 07:53:28;;;;;;;4.95;3.15;;;15.90;73.40;;;;;;2519680;54;20954;-73
2023/04/27 07:55:54;;;;;;;5.82;3.50;;;16.00;73.40;;;;;;2519524;54;21006;-71
2023/04/27 07:58:20;;;;;;;7.12;3.85;;;16.10;73.60;;;;;;2520233;54;20989;-72
2023/04/27 08:00:46;;;;;;;5.70;4.07;;;16.10;73.70;;;;;;2285731;54;20949;-73
2023/04/27 08:03:13;;;;;;;6.45;3.90;;;16.20;73.80;;;;;;2519566;54;20939;-72
2023/04/27 08:05:41;;;;;;;5.97;4.20;;;16.30;73.80;;;;;;2525213;54;20944;-72
2023/04/27 08:08:08;;;;;;;5.05;3.58;;;16.40;73.70;;;;;;2551173;54;21024;-71
2023/04/27 08:10:35;;;;;;;7.00;3.80;;;16.40;73.60;;;;;;2550780;54;20940;-72
2023/04/27 08:13:02;;;;;;;6.00;4.05;;;16.50;73.70;;;;;;2551273;54;20940;-72
2023/04/27 08:15:29;;;;;;;5.75;4.03;;;16.60;73.70;;;;;;2311478;55;20956;-72
2023/04/27 08:17:55;;;;;;;5.43;3.53;;;16.60;73.70;;;;;;2551379;54;21844;-71
2023/04/27 08:20:21;;;;;;;5.70;3.65;;;16.70;73.80;;;;;;2312138;55;21011;-72
2023/04/27 08:22:50;;;;;;;6.30;4.05;;;16.80;74.00;;;;;;2551200;54;20959;-72
2023/04/27 08:25:19;;;;;;;4.82;3.50;;;16.90;73.80;;;;;;2311423;55;20932;-70
2023/04/27 08:27:45;;;;;;;4.82;3.60;;;16.90;73.80;;;;;;2311139;55;20951;-73
2023/04/27 08:30:12;;;;;;;5.00;2.92;;;17.00;74.30;;;;;;2311935;55;21941;-73
2023/04/27 08:32:38;;;;;;;6.12;3.42;;;17.10;74.50;;;;;;2285334;55;20943;-72
2023/04/27 08:35:05;;;;;;;5.70;3.75;;;17.20;74.50;;;;;;2285914;54;21006;-72
2023/04/27 08:37:32;;;;;;;5.35;3.60;;;17.30;74.50;;;;;;2281333;54;21907;-75
2023/04/27 08:39:58;;;;;;;5.35;3.87;;;17.40;74.30;;;;;;2284662;54;20970;-72
2023/04/27 08:42:25;;;;;;;6.78;3.45;;;17.50;74.30;;;;;;2519293;54;20955;-73
2023/04/27 08:44:54;;;;;;;6.40;3.15;;;17.50;74.30;;;;;;2297768;55;21054;-73
2023/04/27 08:47:21;;;;;;;4.20;3.05;;;17.60;74.20;;;;;;2515117;54;21031;-72
2023/04/27 08:49:51;;;;;;;4.75;3.47;;;17.70;74.50;;;;;;2280216;54;21020;-72
2023/04/27 08:52:17;;;;;;;6.05;3.85;;;17.80;74.60;;;;;;2284443;55;20962;-72
2023/04/27 08:54:44;;;;;;;5.18;3.62;;;17.90;74.70;;;;;;2287168;55;21014;-72
2023/04/27 08:57:14;;;;;;;6.45;3.60;;;18.00;74.60;;;;;;2517892;54;21006;-73
2023/04/27 08:59:43;;;;;;;9.15;3.62;;;18.10;74.20;;;;;;2285388;54;21427;-72
2023/04/27 09:02:21;;;;;;;5.43;3.20;;;18.10;74.30;;;;;;2519759;54;20982;-72
2023/04/27 09:04:47;;;;;;;5.07;3.03;;;18.20;73.10;;;;;;2519960;54;20974;-73
2023/04/27 09:07:15;;;;;;;4.87;3.03;;;18.30;74.30;;;;;;2285502;54;20930;-72
2023/04/27 09:09:43;;;;;;;4.95;3.25;;;18.30;74.20;;;;;;2519771;54;21822;-73
2023/04/27 09:12:21;;;;;;;5.90;2.83;;;18.40;74.50;;;;;;2519432;54;20982;-71
2023/04/27 09:15:02;;;;;;;4.12;3.08;;;18.50;73.80;;;;;;2527848;54;21007;-72
2023/04/27 09:17:30;;;;;;;5.05;3.25;;;18.60;73.50;;;;;;2307858;56;21012;-71
2023/04/27 09:20:12;;;;;;;4.72;3.42;;;18.60;74.60;;;;;;2545693;54;21020;-71
2023/04/27 09:22:54;;;;;;;5.22;3.47;;;18.70;73.10;;;;;;2296316;55;20942;-71
2023/04/27 09:25:30;;;;;;;4.25;2.90;;;18.80;73.60;;;;;;2543471;54;21819;-72
2023/04/27 09:27:57;;;;;;;4.65;3.20;;;18.90;73.70;;;;;;2551267;54;20963;-72
2023/04/27 09:30:24;;;;;;;4.50;3.03;;;19.00;74.50;;;;;;2311722;55;21456;-72
2023/04/27 09:33:00;;;;;;;5.55;3.30;;;19.00;74.30;;;;;;2311900;55;21006;-71
2023/04/27 09:35:30;;;;;;;4.47;2.85;;;19.10;73.90;;;;;;2551809;54;20987;-71
2023/04/27 09:38:00;;;;;;;6.18;3.90;;;19.20;75.10;;;;;;2551502;54;20987;-71
2023/04/27 09:40:28;;;;;;;5.43;3.62;;;19.30;74.50;;;;;;2311894;55;20968;-71
2023/04/27 09:42:55;;;;;;;4.82;2.95;;;19.40;74.80;;;;;;2311938;55;21493;-70
2023/04/27 09:45:24;;;;;;;5.40;2.72;;;19.40;74.90;;;;;;2311507;55;20980;-71
2023/04/27 09:47:51;;;;;;;5.32;3.37;;;19.50;74.70;;;;;;2551949;54;21011;-72
2023/04/27 09:50:18;;;;;;;5.87;4.15;;;19.60;75.10;;;;;;2311994;55;20963;-73
2023/04/27 09:52:45;;;;;;;5.85;3.67;;;19.70;75.00;;;;;;2551913;54;20931;-71
2023/04/27 09:56:35;;;;;;;5.37;3.40;;;19.80;74.70;;;;;;2311924;55;21436;-71
2023/04/27 10:05:58;;;;;;;4.90;3.25;;;19.90;74.50;;;;;;2313035;55;20916;-71
2023/04/27 10:08:25;;;;;;;3.53;1.73;;;20.10;74.40;;;;;;2551262;54;20916;-73
2023/04/27 10:10:52;;;;;;;3.60;2.12;;;20.50;76.40;;;;;;2311978;55;21854;-70
2023/04/27 10:13:23;;;;;;;3.50;2.28;;;20.60;76.00;;;;;;2551592;54;20947;-71
2023/04/27 10:15:50;;;;;;;5.00;2.53;;;20.70;75.10;;;;;;2552369;54;20978;-72
2023/04/27 10:18:25;;;;;;;3.95;2.45;;;20.80;75.90;;;;;;2312123;55;21020;-71
2023/04/27 10:20:53;;;;;;;4.60;2.58;;;20.90;74.20;;;;;;2551693;54;21031;-71
2023/04/27 10:23:25;;;;;;;4.35;3.20;;;21.00;75.60;;;;;;2551480;54;20960;-72
2023/04/27 10:25:52;;;;;;;4.15;2.70;;;21.10;74.60;;;;;;2552184;54;20955;-72
2023/04/27 10:28:22;;;;;;;4.70;2.40;;;21.20;75.50;;;;;;2310489;55;20992;-70
2023/04/27 10:30:50;;;;;;;3.30;2.10;;;21.40;75.20;;;;;;2528432;54;21428;-72
2023/04/27 10:33:20;;;;;;;3.83;2.35;;;21.40;74.70;;;;;;2311990;55;20947;-72
2023/04/27 10:35:54;;;;;;;5.20;2.97;;;21.50;74.50;;;;;;2312158;55;20955;-70
2023/04/27 10:38:26;;;;;;;5.37;2.97;;;21.60;73.10;;;;;;2312446;55;20932;-74
2023/04/27 10:41:03;;;;;;;5.65;3.17;;;21.60;73.80;;;;;;2312844;55;21751;-70
2023/04/27 10:43:32;;;;;;;4.90;2.87;;;21.70;71.70;;;;;;2551785;54;21100;-72
2023/04/27 10:46:12;;;;;;;5.40;3.00;;;21.70;72.90;;;;;;2551846;54;21118;-70
2023/04/27 10:48:39;;;;;;;5.80;2.35;;;21.70;70.80;;;;;;2551657;54;20951;-70
2023/04/27 10:51:06;;;;;;;5.05;3.05;;;21.70;72.20;;;;;;2312606;55;20939;-70
2023/04/27 10:53:35;;;;;;;4.43;2.75;;;21.70;72.00;;;;;;2552017;54;20916;-70
2023/04/27 10:56:04;;;;;;;3.25;1.92;;;21.70;71.30;;;;;;2293171;55;21000;-71
2023/04/27 10:58:30;;;;;;;4.00;2.62;;;21.70;71.80;;;;;;2551329;54;20940;-71
2023/04/27 11:01:00;;;;;;;4.30;2.33;;;21.70;71.70;;;;;;2312505;55;20934;-72
2023/04/27 11:03:27;;;;;;;5.40;2.58;;;21.70;71.60;;;;;;2312014;55;21031;-70
2023/04/27 11:06:01;;;;;;;4.18;2.40;;;21.70;71.70;;;;;;2551398;54;22092;-69
2023/04/27 11:08:29;;;;;;;3.42;2.08;;;21.80;70.30;;;;;;2524332;54;20971;-70
2023/04/27 11:10:55;;;;;;;3.55;2.05;;;21.70;71.50;;;;;;2311652;55;21007;-70
2023/04/27 11:13:24;;;;;;;6.07;2.15;;;21.80;71.40;;;;;;2311926;55;22063;-70
2023/04/27 11:15:55;;;;;;;3.75;2.30;;;21.70;70.60;;;;;;2551619;54;21111;-70
2023/04/27 11:18:22;;;;;;;4.65;2.40;;;21.70;70.00;;;;;;2551444;54;20973;-71
2023/04/27 11:20:52;;;;;;;5.25;2.60;;;21.70;70.70;;;;;;2311248;55;21484;-72
2023/04/27 11:23:26;;;;;;;5.82;2.80;;;21.70;70.70;;;;;;2310553;55;21083;-70
2023/04/27 11:25:55;;;;;;;7.05;2.78;;;21.80;70.30;;;;;;2551268;54;21019;-72
2023/04/27 11:28:22;;;;;;;4.78;2.60;;;21.70;71.70;;;;;;2551188;54;20963;-72
2023/04/27 11:30:56;;;;;;;3.75;2.42;;;21.80;71.90;;;;;;2551250;54;21785;-71
2023/04/27 11:33:22;;;;;;;3.87;2.67;;;21.80;70.60;;;;;;2551340;54;20952;-70
2023/04/27 11:35:48;;;;;;;4.90;2.40;;;21.90;71.80;;;;;;2551483;54;20958;-70
2023/04/27 11:38:17;;;;;;;4.87;2.40;;;21.90;71.60;;;;;;2311138;55;21495;-70
2023/04/27 11:40:46;;;;;;;3.80;2.45;;;22.00;71.70;;;;;;2296417;55;20936;-71
2023/04/27 11:43:13;;;;;;;4.93;2.87;;;22.00;70.90;;;;;;2293690;55;21035;-71
2023/04/27 11:45:46;;;;;;;4.18;2.50;;;22.00;71.20;;;;;;2309045;55;20988;-71
2023/04/27 11:48:17;;;;;;;3.35;2.35;;;22.00;70.40;;;;;;2551198;54;20956;-71
2023/04/27 11:50:50;;;;;;;3.93;2.10;;;22.00;70.60;;;;;;2296716;55;20964;-71
2023/04/27 11:53:16;;;;;;;3.40;2.12;;;22.00;70.50;;;;;;2290195;55;20962;-69
2023/04/27 11:55:44;;;;;;;3.55;1.85;;;22.00;71.40;;;;;;2311983;55;21231;-72
2023/04/27 11:58:14;;;;;;;3.53;1.87;;;22.00;71.80;;;;;;2551768;54;20988;-71
2023/04/27 12:00:41;;;;;;;3.28;2.08;;;22.10;70.90;;;;;;2297102;55;20937;-72
2023/04/27 12:03:08;;;;;;;4.30;2.05;;;22.20;71.30;;;;;;2307784;55;21452;-71
2023/04/27 12:05:47;;;;;;;3.03;1.70;;;22.20;71.20;;;;;;2312351;55;20928;-71
2023/04/27 12:08:14;;;;;;;3.30;1.80;;;22.20;69.60;;;;;;2551903;54;21870;-72
2023/04/27 12:10:40;;;;;;;3.58;1.77;;;22.20;71.20;;;;;;2312138;55;21087;-70
2023/04/27 12:13:06;;;;;;;3.10;1.27;;;22.20;70.90;;;;;;2551338;54;21912;-70
2023/04/27 12:15:33;;;;;;;3.05;1.70;;;22.20;71.10;;;;;;2312364;55;21772;-70
2023/04/27 12:17:59;;;;;;;3.37;2.03;;;22.20;71.40;;;;;;2551428;54;21763;-71
2023/04/27 12:20:25;;;;;;;4.03;2.03;;;22.30;71.70;;;;;;2551246;54;21534;-71
2023/04/27 12:22:53;;;;;;;3.92;2.12;;;22.40;71.90;;;;;;2311839;55;20963;-73
2023/04/27 12:25:20;;;;;;;3.08;1.90;;;22.40;71.50;;;;;;2551202;54;20941;-74
2023/04/27 12:27:48;;;;;;;3.60;1.98;;;22.40;71.40;;;;;;2311475;55;20968;-73
2023/04/27 12:30:14;;;;;;;3.25;1.75;;;22.50;71.40;;;;;;2312079;55;21326;-73
2023/04/27 12:32:40;;;;;;;3.58;1.80;;;22.50;71.50;;;;;;2551629;54;20952;-73
2023/04/27 12:35:08;;;;;;;4.28;1.60;;;22.60;71.30;;;;;;2552036;54;21039;-76
2023/04/27 12:37:35;;;;;;;3.45;2.00;;;22.60;71.50;;;;;;2312385;55;21355;-73
2023/04/27 12:40:04;;;;;;;3.60;1.92;;;22.60;72.00;;;;;;2551981;54;20936;-72
2023/04/27 12:42:31;;;;;;;4.18;2.00;;;22.70;72.40;;;;;;2551451;54;21407;-70
2023/04/27 12:44:57;;;;;;;3.75;1.90;;;22.80;72.10;;;;;;2311946;55;20980;-71
2023/04/27 12:47:23;;;;;;;3.03;1.55;;;22.80;71.50;;;;;;2293531;55;21015;-69
2023/04/27 12:49:52;;;;;;;3.33;1.70;;;22.90;71.00;;;;;;2552322;54;20980;-71
2023/04/27 12:52:19;;;;;;;2.70;1.50;;;22.90;70.90;;;;;;2551620;54;21041;-71
2023/04/27 12:54:45;;;;;;;3.05;1.40;;;22.90;70.70;;;;;;2311785;55;21373;-70
2023/04/27 12:57:11;;;;;;;2.55;1.35;;;23.00;70.40;;;;;;2551776;54;20952;-71